Manitou, Minnesota
Current Conditions -  °F | °C
As of 6:53 PM on Monday 22 Dec 2014 (Local Time) from KBDE Reporting Station
Overcast Overcast  
Wind Chill: 29°   Ceiling: 600
Heat Index: 34°   Visibility: 10mi
Dew Point: 32°   Wind: 6mph
Humidity: 92%   Direction: 90°E
Pressure: 29.7"   Gusts: NA
Location:  48.6069°N, 94.172°W
Report Text: KBDE 230053Z AUTO 09005KT 10SM BKN006 OVC012 01/00 A2970 RMK AO2 SLP072 T00110000 TSNO
Loading
Personal Weather Stations






























Interactive Weather Map New forecast layout! Learn more

10-Day Weather Forecast

Advertisements
Track Severe Weather on mobile